createdAt,value
2018-06-20T00:00:28.779Z,24.03
2018-06-20T00:05:31.894Z,21.03
2018-06-20T00:10:34.945Z,21.83
2018-06-20T00:15:38.005Z,22.20
2018-06-20T00:20:41.056Z,23.63
2018-06-20T00:25:44.096Z,24.87
2018-06-20T00:30:47.137Z,25.50
2018-06-20T00:35:50.176Z,23.93
2018-06-20T00:40:53.233Z,24.83
2018-06-20T00:45:56.272Z,24.40
2018-06-20T00:50:59.313Z,26.67
2018-06-20T00:56:18.328Z,24.43
2018-06-20T01:01:22.220Z,27.50
2018-06-20T01:06:25.252Z,25.30
2018-06-20T01:11:28.386Z,24.90
2018-06-20T01:16:31.429Z,25.83
2018-06-20T01:21:34.464Z,29.83
2018-06-20T01:26:37.508Z,24.07
2018-06-20T01:31:40.612Z,25.47
2018-06-20T01:36:43.652Z,24.13
2018-06-20T01:41:46.727Z,26.87
2018-06-20T01:46:56.930Z,28.67
2018-06-20T01:51:59.993Z,22.73
2018-06-20T01:57:03.053Z,26.00
2018-06-20T02:02:06.112Z,27.37
2018-06-20T02:07:09.359Z,25.47
2018-06-20T02:12:12.392Z,23.70
2018-06-20T02:17:15.532Z,21.47
2018-06-20T02:22:18.580Z,23.73
2018-06-20T02:27:21.629Z,25.50
2018-06-20T02:32:24.828Z,25.80
2018-06-20T02:37:27.864Z,25.43
2018-06-20T02:42:30.922Z,25.93
2018-06-20T02:47:39.400Z,24.30
2018-06-20T02:52:42.637Z,27.87
2018-06-20T02:57:45.632Z,23.77
2018-06-20T03:02:48.876Z,24.57
2018-06-20T03:07:52.022Z,20.50
2018-06-20T03:12:55.100Z,19.80
2018-06-20T03:17:58.169Z,31.43
2018-06-20T03:23:01.225Z,30.77
2018-06-20T03:28:04.256Z,28.50
2018-06-20T03:33:07.309Z,28.13
2018-06-20T03:38:10.360Z,26.20
2018-06-20T03:43:13.405Z,24.23
2018-06-20T03:48:16.360Z,25.70
2018-06-20T03:53:19.417Z,28.00
2018-06-20T03:58:22.365Z,27.30
2018-06-20T04:03:25.422Z,33.37
2018-06-20T04:08:28.356Z,32.93
2018-06-20T04:13:31.425Z,37.87
2018-06-20T04:18:39.609Z,41.27
2018-06-20T04:23:42.748Z,35.43
2018-06-20T04:28:45.789Z,41.10
2018-06-20T04:33:48.852Z,42.43
2018-06-20T04:38:51.893Z,43.03
2018-06-20T04:43:54.969Z,42.10
2018-06-20T04:48:58.010Z,42.43
2018-06-20T04:54:01.083Z,41.67
2018-06-20T04:59:04.200Z,44.53
2018-06-20T05:04:07.293Z,44.93
2018-06-20T05:09:15.957Z,41.03
2018-06-20T05:14:19.621Z,41.43
2018-06-20T05:19:23.592Z,34.80
2018-06-20T05:24:27.051Z,38.43
2018-06-20T05:29:30.112Z,37.60
2018-06-20T05:34:33.170Z,32.33
2018-06-20T05:39:36.329Z,34.97
2018-06-20T05:44:39.393Z,37.33
2018-06-20T05:49:42.453Z,39.90
2018-06-20T05:54:45.612Z,30.23
2018-06-20T05:59:48.689Z,31.27
2018-06-20T06:04:51.768Z,34.80
2018-06-20T06:09:54.825Z,34.33
2018-06-20T06:14:57.882Z,29.30
2018-06-20T06:20:00.988Z,29.37
2018-06-20T06:25:04.041Z,28.63
2018-06-20T06:30:07.079Z,26.20
2018-06-20T06:35:10.126Z,26.70
2018-06-20T06:40:13.193Z,27.27
2018-06-20T06:45:16.304Z,26.57
2018-06-20T06:50:19.347Z,26.27
2018-06-20T06:55:22.805Z,29.13
2018-06-20T07:00:26.134Z,24.43
2018-06-20T07:05:29.181Z,24.43
2018-06-20T07:10:32.140Z,25.67
2018-06-20T07:15:35.257Z,26.83
2018-06-20T07:20:38.265Z,23.57
2018-06-20T07:25:41.297Z,21.37
2018-06-20T07:30:44.343Z,22.73
2018-06-20T07:35:48.528Z,20.83
2018-06-20T07:40:51.524Z,20.57
2018-06-20T07:45:54.572Z,21.67
2018-06-20T07:50:57.621Z,23.37
2018-06-20T07:56:00.664Z,17.23
2018-06-20T08:01:09.158Z,20.03
2018-06-20T08:06:17.725Z,17.57
2018-06-20T08:11:26.377Z,14.93
2018-06-20T08:16:34.989Z,13.90
2018-06-20T08:21:38.036Z,15.63
2018-06-20T08:26:41.088Z,15.33
2018-06-20T08:31:44.137Z,14.90
2018-06-20T08:36:49.420Z,14.17
2018-06-20T08:41:52.473Z,13.57
2018-06-20T08:46:55.510Z,13.87
2018-06-20T08:51:58.582Z,14.83
2018-06-20T08:57:01.629Z,10.10
2018-06-20T09:02:04.960Z,9.60
2018-06-20T09:07:13.662Z,10.37
2018-06-20T09:12:22.287Z,7.43
2018-06-20T09:17:30.944Z,6.50
2018-06-20T09:22:33.980Z,6.23
2018-06-20T09:27:37.100Z,6.87
2018-06-20T09:32:40.141Z,9.23
2018-06-20T09:37:43.197Z,10.53
2018-06-20T09:42:46.381Z,9.30
2018-06-20T09:47:49.704Z,9.17
2018-06-20T09:52:52.796Z,6.83
2018-06-20T09:57:55.870Z,5.57
2018-06-20T10:03:19.906Z,5.33
2018-06-20T10:08:28.556Z,6.83
2018-06-20T10:13:35.949Z,5.37
2018-06-20T10:18:39.071Z,6.33
2018-06-20T10:23:42.141Z,4.90
2018-06-20T10:28:45.196Z,3.37
2018-06-20T10:33:48.940Z,4.03
2018-06-20T10:38:52.076Z,3.43
2018-06-20T10:43:55.104Z,3.50
2018-06-20T10:48:58.040Z,3.10
2018-06-20T10:54:02.649Z,3.67
2018-06-20T10:59:11.157Z,4.37
2018-06-20T11:04:19.800Z,3.20
2018-06-20T11:09:28.558Z,2.97
2018-06-20T11:14:31.619Z,3.10
2018-06-20T11:19:34.733Z,3.90
2018-06-20T11:24:37.783Z,2.57
2018-06-20T11:29:40.829Z,4.00
2018-06-20T11:34:43.909Z,5.00
2018-06-20T11:39:46.957Z,3.10
2018-06-20T11:44:49.997Z,3.73
2018-06-20T11:49:53.090Z,4.13
2018-06-20T11:55:00.389Z,6.20
2018-06-20T12:00:08.881Z,4.40
2018-06-20T12:05:17.360Z,4.87
2018-06-20T12:10:25.897Z,5.60
2018-06-20T12:15:34.385Z,6.30
2018-06-20T12:20:42.868Z,6.83
2018-06-20T12:25:51.331Z,5.10
2018-06-20T12:30:59.966Z,4.33
2018-06-20T12:36:08.441Z,4.67
2018-06-20T12:41:16.848Z,4.07
2018-06-20T12:46:55.301Z,4.33
2018-06-20T12:51:58.608Z,5.30
2018-06-20T12:57:01.652Z,3.00
2018-06-20T13:02:04.729Z,3.17
2018-06-20T13:07:07.895Z,2.40
2018-06-20T13:12:10.917Z,3.10
2018-06-20T13:17:13.977Z,3.83
2018-06-20T13:22:17.016Z,3.07
2018-06-20T13:27:25.373Z,3.37
2018-06-20T13:32:34.419Z,2.33
2018-06-20T13:37:42.785Z,4.07
2018-06-20T13:43:07.684Z,3.50
2018-06-20T13:48:16.556Z,2.60
2018-06-20T13:53:19.600Z,3.77
2018-06-20T13:58:22.640Z,2.80
2018-06-20T14:03:26.420Z,2.70
2018-06-20T14:08:29.457Z,2.47
2018-06-20T14:13:32.589Z,3.83
2018-06-20T14:18:35.637Z,4.07
2018-06-20T14:23:38.681Z,5.00
2018-06-20T14:28:41.733Z,2.73
2018-06-20T14:33:50.253Z,5.07
2018-06-20T14:38:59.370Z,2.67
2018-06-20T14:44:08.386Z,3.70
2018-06-20T14:49:12.141Z,2.33
2018-06-20T14:54:15.163Z,2.83
2018-06-20T14:59:18.204Z,3.83
2018-06-20T15:04:21.241Z,4.07
2018-06-20T15:09:24.376Z,5.20
2018-06-20T15:14:27.503Z,3.10
2018-06-20T15:19:30.600Z,2.60
2018-06-20T15:24:33.643Z,3.23
2018-06-20T15:29:42.181Z,3.30
2018-06-20T15:34:57.455Z,3.23
2018-06-20T15:40:00.521Z,3.53
2018-06-20T15:45:04.265Z,3.53
2018-06-20T15:50:07.674Z,3.13
2018-06-20T15:55:10.976Z,4.53
2018-06-20T16:00:14.060Z,2.50
2018-06-20T16:05:17.854Z,3.40
2018-06-20T16:10:22.059Z,4.97
2018-06-20T16:15:26.064Z,2.57
2018-06-20T16:20:34.501Z,2.83
2018-06-20T16:25:43.392Z,2.93
2018-06-20T16:30:47.190Z,3.37
2018-06-20T16:35:50.353Z,5.40
2018-06-20T16:40:53.387Z,3.10
2018-06-20T16:45:56.504Z,2.67
2018-06-20T16:50:59.557Z,3.17
2018-06-20T16:56:02.644Z,4.07
2018-06-20T17:01:11.105Z,2.50
2018-06-20T17:06:14.073Z,3.03
2018-06-20T17:11:17.080Z,2.37
2018-06-20T17:16:25.725Z,6.77
2018-06-20T17:22:36.328Z,2.83
2018-06-20T17:27:39.393Z,6.37
2018-06-20T17:32:42.440Z,2.97
2018-06-20T17:37:45.472Z,3.47
2018-06-20T17:42:48.533Z,5.77
2018-06-20T17:47:51.694Z,2.07
2018-06-20T17:53:05.858Z,3.80
2018-06-20T17:58:08.913Z,3.30
2018-06-20T18:03:12.051Z,4.63
2018-06-20T18:08:20.747Z,3.43
2018-06-20T18:13:29.769Z,3.07
2018-06-20T18:18:32.840Z,4.03
2018-06-20T18:23:35.886Z,3.93
2018-06-20T18:28:39.364Z,2.23
2018-06-20T18:33:42.493Z,3.43
2018-06-20T18:38:45.537Z,3.67
2018-06-20T18:43:49.382Z,4.17
2018-06-20T18:48:52.498Z,6.90
2018-06-20T18:53:55.457Z,5.23
2018-06-20T18:59:04.055Z,3.70
2018-06-20T19:04:12.545Z,3.43
2018-06-20T19:09:17.287Z,4.33
2018-06-20T19:14:20.457Z,3.60
2018-06-20T19:19:23.608Z,2.77
2018-06-20T19:24:26.666Z,2.67
2018-06-20T19:34:38.460Z,2.73
2018-06-20T19:39:46.933Z,3.77
2018-06-20T19:44:50.063Z,4.97
2018-06-20T19:49:53.487Z,3.00
2018-06-20T19:54:56.518Z,5.50
2018-06-20T19:59:59.568Z,5.07
2018-06-20T20:05:02.629Z,5.03
2018-06-20T20:10:05.705Z,3.37
2018-06-20T20:15:09.519Z,8.93
2018-06-20T20:20:12.620Z,10.73
2018-06-20T20:25:15.673Z,10.20
2018-06-20T20:30:18.807Z,5.67
2018-06-20T20:35:21.937Z,4.30
2018-06-20T20:40:24.965Z,7.70
2018-06-20T20:45:28.112Z,5.63
2018-06-20T20:50:31.157Z,5.67
2018-06-20T20:55:34.095Z,3.90
2018-06-20T21:00:38.861Z,4.83
2018-06-20T21:05:41.913Z,6.20
2018-06-20T21:10:44.973Z,3.90
2018-06-20T21:15:48.061Z,4.83
2018-06-20T21:20:51.192Z,4.67
2018-06-20T21:25:54.240Z,4.77
2018-06-20T21:30:57.921Z,7.63
2018-06-20T21:36:00.953Z,5.27
2018-06-20T21:41:04.033Z,4.20
2018-06-20T21:46:07.074Z,4.93
2018-06-20T21:51:10.120Z,5.10
2018-06-20T21:56:14.537Z,5.80
2018-06-20T22:01:17.560Z,5.03
2018-06-20T22:06:21.461Z,6.43
2018-06-20T22:11:24.397Z,7.03
2018-06-20T22:16:27.437Z,6.40
2018-06-20T22:21:30.637Z,6.57
2018-06-20T22:26:34.265Z,6.83
2018-06-20T22:31:37.357Z,7.37
2018-06-20T22:36:40.409Z,5.83
2018-06-20T22:41:43.461Z,6.60
2018-06-20T22:46:46.517Z,6.77
2018-06-20T22:51:49.578Z,6.27
2018-06-20T22:56:52.642Z,7.07
2018-06-20T23:01:56.429Z,6.40
2018-06-20T23:06:59.476Z,6.93
2018-06-20T23:12:03.177Z,6.70
2018-06-20T23:17:06.532Z,8.83
2018-06-20T23:22:33.237Z,7.70
2018-06-20T23:27:36.269Z,10.97
2018-06-20T23:32:39.128Z,7.53
2018-06-20T23:43:39.635Z,7.30
2018-06-20T23:48:42.912Z,8.80
2018-06-20T23:53:46.027Z,10.60
2018-06-20T23:58:49.085Z,7.97
